Klaipeda, Lithuania
Current Conditions -  °F | °C
As of 4:50 AM on Sunday 26 Oct 2014 (Local Time) from EYPA Reporting Station
Overcast Overcast  
Wind Chill: 35°   Ceiling: 1600
Heat Index: 41°   Visibility: 6mi
Dew Point: 34°   Wind: 9mph
Humidity: 76%   Direction: 160°SSE
Pressure: 30.24"   Gusts: NA
Location:  55.71°N, 21.13°E
Report Text: EYPA 260150Z AUTO 16008KT 9999 OVC016/// 05/01 Q1024
Loading
Personal Weather Stations






























Interactive Weather Map
Tropical Storm Tracking
New forecast layout! Learn more

10-Day Weather Forecast

Advertisements
Track Severe Weather on mobile